Ely, Nevada Weather observations

Data are for observation ending at time listed.
 Day   Time    Ave.   Ave.  Ave.  Vector   Max.   Stn.    Total    Solar   Ave.  
  of    of     Air    Rel.  Wind   Wind    Wind   Baro.  Precip.   Rad.    Soil  
Year   Day     Temp.  Hum.  Speed  Dir.    Gust   Pres.                    Temp. 
2014   (PST)    F      %     mph   deg.    mph     mb.     in.     W/m2     F   
------------------------------------------------------------------------------
 209   16:50   69.5    58    8.9   285     15.7   816.8    0.00      88    76.3
 209   17:00   69.3    59    9.1   277     13.2   816.8    0.00      83    76.0
 209   17:10   69.5    57    7.2   323     12.7   816.8    0.00      81    75.5
 209   17:20   69.4    56    8.6   333     10.7   816.7    0.00      81    75.1
 209   17:30   69.3    56    7.0   327      8.6   816.8    0.00      96    74.8
 209   17:40   68.7    58    6.2   285      9.9   816.8    0.00     107    74.5
 209   17:50   68.4    58    6.3   270      9.7   816.8    0.00      90    74.3
 209   18:00   68.4    57    5.1   282      8.8   816.8    0.00      64    74.2
 209   18:10   68.4    57    5.6   284      7.1   816.8    0.00      42    74.0
 209   18:20   67.6    58    6.4   274      9.5   816.8    0.00      24    73.8
 209   18:30   67.3    59    5.9   276      8.1   816.9    0.00       8    73.5
 209   18:40   67.2    60    4.4   283      6.6   816.9    0.00       7    73.2
 209   18:50   66.5    62    5.5   255      8.1   816.9    0.00       6    72.9
 209   19:00   65.7    64    8.2   267     11.0   816.9    0.00       1    72.6
 209   19:10   65.3    64    8.1   279     10.4   816.9    0.00       0    72.2
 209   19:20   65.4    63    8.5   279     11.0   816.9    0.00       0    71.9
 209   19:30   65.0    65    7.8   266     10.9   817.0    0.00       0    71.7
 209   19:40   64.9    66    7.6   260      9.8   817.1    0.00       0    71.5
 209   19:50   64.9    67    7.1   252      8.8   817.1    0.00       0    71.3
 209   20:00   65.1    66    6.9   260      8.6   817.1    0.00       0    71.2
 209   20:10   65.0    66    5.5   275      7.8   817.2    0.00       0    71.0
 209   20:20   64.7    67    7.0   268      9.1   817.2    0.00       0    70.9
 209   20:30   64.6    67    5.4   265      8.5   817.2    0.00       0    70.7
 209   20:40   64.7    66    7.5   272      9.7   817.2    0.00       0    70.6
 209   20:50   64.7    65    5.9   260      8.3   817.2    0.00       0    70.5
 209   21:00   64.8    65    4.6   248      6.3   817.2    0.00       0    70.4
 209   21:10   64.3    69    4.6   258      7.3   817.2    0.00       0    70.2
 209   21:20   64.0    70    3.2   204      7.1   817.2    0.00       0    70.0
 209   21:30   64.3    68    1.0   158      3.8   817.2    0.00       0    69.7
 209   21:40   64.3    67    0.7   358      3.1   817.1    0.00       0    69.4
 209   21:50   64.1    68    1.0    51      3.4   817.0    0.00       1    69.1
 209   22:00   63.8    68    1.2   245      4.7   817.0    0.00       0    68.8
 209   22:10   63.5    70    0.0     1      1.0   817.0    0.00       0    68.6
 209   22:20   63.2    71    1.4   226      4.9   816.9    0.00       0    68.4
 209   22:30   62.6    71    4.7   251      6.4   816.9    0.00       0    68.3
 209   22:40   62.8    68    6.8   262      9.4   816.9    0.00       1    68.1
 209   22:50   63.0    68    4.2   246      7.2   816.9    0.00       0    67.8
 209   23:00   62.5    72    3.4   133      6.6   816.8    0.00       0    67.6
 209   23:10   62.1    74    1.6   104      3.7   816.8    0.00       0    67.5
 209   23:20   62.1    74    2.4    86      4.5   816.7    0.00       0    67.4
 209   23:30   62.2    73    1.7   102      3.7   816.6    0.00       0    67.4
 209   23:40   62.2    73    1.4   112      3.5   816.6    0.00       0    67.3
 209   23:50   62.3    71    2.8   178      4.7   816.5    0.00       0    67.3
 210    0:00   61.7    72    6.2   158      8.3   816.4    0.00       0    67.3
 210    0:10   60.9    76    6.1   149      8.1   816.3    0.00       1    67.2
 210    0:20   60.5    78    5.5   146      7.5   816.2    0.00       0    67.1
 210    0:30   60.2    79    6.5   149      8.7   816.2    0.00       0    67.1
 210    0:40   59.6    82    7.8   152      9.8   816.1    0.00       0    66.9
 210    0:50   58.9    84    8.4   155     10.4   816.1    0.00       0    66.8
 210    1:00   58.5    84    7.4   158      8.8   816.1    0.00       0    66.6
 210    1:10   58.0    85    7.6   152      9.6   816.2    0.00       0    66.4
 210    1:20   58.3    85    8.1   147     10.3   816.2    0.00       0    66.2
 210    1:30   58.2    84    8.3   140      9.9   816.1    0.00       0    66.1
 210    1:40   58.3    84    8.7   156     11.3   816.0    0.00       0    65.9
 210    1:50   58.7    82    8.8   162     11.9   816.0    0.00       0    65.9
 210    2:00   58.8    83    9.6   162     12.6   816.0    0.00       0    65.8
 210    2:10   59.1    83    6.5   170     10.7   816.1    0.00       1    65.8
 210    2:20   59.3    83    5.7   171      8.4   816.0    0.00       0    65.9
 210    2:30   60.1    84    6.7   165     10.4   816.0    0.00       0    65.9
 210    2:40   60.1    84    9.2   158     11.6   815.9    0.00       0    65.9
 210    2:50   60.2    84    8.9   154     10.9   815.9    0.00       0    66.0
 210    3:00   60.0    83    7.5   152      9.9   815.9    0.00       0    65.9
 210    3:10   59.3    84    5.5   141      8.0   816.0    0.00       0    65.9
 210    3:20   58.3    85    5.9   139      7.7   816.1    0.00       0    65.9
 210    3:30   58.4    86    5.6   137      7.0   816.1    0.00       0    65.8
 210    3:40   58.4    86    2.8   156      5.9   816.2    0.00       0    65.8
 210    3:50   58.3    86    2.4   142      3.5   816.3    0.00       0    65.8
 210    4:00   58.5    86    2.9   119      5.4   816.3    0.00       0    65.8
 210    4:10   58.7    87    3.4   118      5.6   816.3    0.00       0    65.7
 210    4:20   58.9    87    3.1   131      5.3   816.3    0.00       0    65.7
 210    4:30   58.9    86    2.1   183      2.9   816.3    0.00       1    65.5
 210    4:40   58.7    87    2.3   206      3.6   816.3    0.00       6    65.4
 210    4:50   58.5    87    1.9   204      2.6   816.3    0.00       7    65.2
 210    5:00   58.4    87    1.2   291      2.7   816.4    0.00      12    65.1
 210    5:10   58.7    87    0.2   332      1.1   816.4    0.00      24    65.0
 210    5:20   59.2    85    0.7    41      1.6   816.5    0.00      52    64.9
 210    5:30   59.4    85    2.6    76      3.8   816.5    0.00      52    65.0
 210    5:40   59.5    85    0.5    91      2.3   816.6    0.00      51    65.2
 210    5:50   59.7    84    0.2    93      1.6   816.5    0.00      80    65.3
 210    6:00   60.7    82    0.0    86      0.7   816.6    0.00     113    65.6
 210    6:10   61.6    80    1.1    92      2.3   816.6    0.00     127    65.9
 210    6:20   62.3    76    0.1   263      1.6   816.7    0.00     122    66.4
 210    6:30   62.3    74    1.9   265      3.7   816.8    0.00     127    66.8
 210    6:40   62.1    76    1.5   236      2.9   816.8    0.00     121    67.2
 210    6:50   62.4    76    0.7   293      2.1   816.9    0.00     111    67.6
 210    7:00   62.3    73    1.0   328      3.4   816.9    0.00     108    67.9
 210    7:10   62.8    69    0.5   312      2.0   816.9    0.00     134    68.1
 210    7:20   63.4    66    0.7   290      3.0   817.0    0.00     194    68.4
 210    7:30   63.4    67    2.7   297      4.2   817.0    0.00     190    68.8
 210    7:40   63.6    66    2.1   272      3.6   817.0    0.00     133    69.3
 210    7:50   63.9    66    1.3   263      3.9   817.2    0.00      94    69.5
 210    8:00   63.9    66    1.9   305      3.7   817.1    0.00     103    69.6
 210    8:10   63.9    66    2.9   318      4.6   817.1    0.00     103    69.7
 210    8:20   64.0    66    1.9   331      4.2   817.3    0.00     103    69.8
 210    8:30   64.6    65    2.3   358      6.1   817.2    0.00     138    69.9
 210    8:40   64.4    67    4.0    18      6.1   817.2    0.00     191    70.0
 210    8:50   64.5    68    2.8    20      4.7   817.2    0.00     227    70.3
 210    9:00   65.0    66    2.5    22      4.1   817.3    0.00     264    70.7
 210    9:10   66.1    62    1.1   334      4.0   817.3    0.00     285    71.2
 210    9:20   66.3    61    2.5   332      5.2   817.3    0.00     286    71.8
 210    9:30   67.2    58    1.2   355      3.9   817.3    0.00     382    72.4
 210    9:40   69.0    53    1.2    72      3.1   817.3    0.00     572    73.3
 210    9:50   69.2    52    2.2   167      4.7   817.2    0.00     398    74.5
 210   10:00   69.0    53    0.8   219      2.6   817.2    0.00     472    75.5
 210   10:10   71.7    48    0.9    71      5.0   817.1    0.00    1105    76.6
 210   10:20   71.8    47    3.8   335     12.8   817.0    0.00     541    78.9
 210   10:30   70.6    48    8.1   329     14.1   817.0    0.00     417    80.0
 210   10:40   70.4    49    9.6   328     15.7   816.9    0.00     539    80.1
 210   10:50   70.3    50    9.5   323     13.3   816.8    0.00     505    80.3
 210   11:00   70.1    50   10.4   285     15.4   816.7    0.00     392    80.5
 210   11:10   69.6    48    7.9   295     13.0   816.7    0.00     259    80.5
 210   11:20   69.4    46    7.6   320     11.6   816.8    0.00     206    80.2
 210   11:30   69.5    44    6.0   314     11.8   816.7    0.00     237    79.6
 210   11:40   69.8    44    6.3   314     12.2   816.7    0.00     293    79.2
 210   11:50   70.3    44    5.2   285      8.5   816.6    0.00     427    79.0
 210   12:00   71.1    44    4.0   254      7.6   816.5    0.00     652    79.3
 210   12:10   71.8    45    3.4   203      8.2   816.3    0.00     854    80.4
 210   12:20   73.4    42    5.5   268     10.1   816.1    0.00     989    81.9
 210   12:30   73.6    40    6.0   297     12.1   815.9    0.00    1008    83.0
 210   12:40   73.7    41    4.3   315      8.9   815.7    0.00     849    83.3
 210   12:50   74.4    39    8.1   264     14.3   815.5    0.00     822    83.9
 210   13:00   74.6    39    4.2   304      8.8   815.5    0.00     907    84.9
 210   13:10   75.2    38    2.3    96      6.6   815.5    0.00     652    85.9
 210   13:20   75.7    34    3.6   329     16.5   815.4    0.00     589    86.3
 210   13:30   76.0    35    6.1   296     11.5   815.2    0.00     504    86.3
 210   13:40   77.1    30    9.8   332     18.1   815.2    0.00     848    86.4
 210   13:50   78.3    28    9.3   344     14.9   815.1    0.00     865    86.7
 210   14:00   77.5    28   10.8     2     18.6   814.9    0.00     863    87.0
 210   14:10   78.5    28   11.1     4     18.8   814.8    0.00     915    87.0
 210   14:20   78.6    28   10.8     1     18.3   814.8    0.00     550    87.0
 210   14:30   78.7    27   12.4     8     21.7   814.7    0.00     544    86.6
 210   14:40   78.1    28    8.3   340     19.1   814.6    0.00     231    86.0
 210   14:50   78.9    27   10.5   351     16.9   814.5    0.00     457    85.2
 210   15:00   79.0    27   11.1   358     17.3   814.4    0.00     623    84.8
 210   15:10   79.5    27   11.4    11     17.5   814.3    0.00     690    84.5
 210   15:20   79.9    27   13.1   344     20.5   814.1    0.00     643    84.3
 210   15:30   80.0    26   11.2   332     19.6   814.0    0.00     618    84.1
 210   15:40   80.0    26   12.5   350     18.9   814.0    0.00     568    84.0
 210   15:50   80.3    25   11.4   345     20.8   813.9    0.00     566    84.1
 210   16:00   80.1    24   11.3     1     17.5   813.8    0.00     538    84.3
 210   16:10   79.6    25    9.5   353     14.0   813.7    0.00     200    84.2
 210   16:20   79.1    26   10.2   339     14.6   813.7    0.00     172    83.7
 210   16:30   79.5    26   10.5   335     14.7   813.6    0.00     485    83.2
 210   16:40   80.5    24    9.9   311     15.1   813.6    0.00     488    83.2

Return to Ely, Nevada graphs page.


Western Regional Climate Center,wrcc@dri.edu